Time;durP1;ratioP1;P1;durP2;ratioP2;P2;SDS_P1;SDS_P2;PMS_P1;PMS_P2;Temp;Humidity;BMP_temperature;BMP_pressure;BME280_temperature;BME280_humidity;BME280_pressure;Samples;Min_cycle;Max_cycle;Signal;HPM_P1;HPM_P2
2022/03/03 00:00:06;;;;;;;134.10;109.18;;;;;;;-0.77;100.00;101035.31;4955951;28;20055;-79
2022/03/03 00:02:33;;;;;;;145.88;107.78;;;;;;;-0.73;100.00;101034.09;4955894;28;20055;-80
2022/03/03 00:05:00;;;;;;;137.32;112.13;;;;;;;-0.65;100.00;101028.25;4994291;28;20121;-81
2022/03/03 00:07:27;;;;;;;117.05;90.88;;;;;;;-0.62;100.00;101028.84;4994206;28;20105;-80
2022/03/03 00:09:53;;;;;;;122.45;101.05;;;;;;;-0.55;100.00;101032.59;4994771;28;20050;-79
2022/03/03 00:12:21;;;;;;;135.65;100.40;;;;;;;-0.63;100.00;101034.19;4994168;28;20541;-81
2022/03/03 00:14:48;;;;;;;118.68;94.22;;;;;;;-0.58;100.00;101032.84;4994172;28;20561;-79
2022/03/03 00:17:15;;;;;;;121.57;96.40;;;;;;;-0.57;100.00;101023.25;4994257;28;20058;-82
2022/03/03 00:19:42;;;;;;;139.82;113.03;;;;;;;-0.61;100.00;101025.25;4994013;28;20112;-82
2022/03/03 00:22:09;;;;;;;121.20;95.30;;;;;;;-0.59;100.00;101020.75;4994185;28;20053;-80
2022/03/03 00:24:36;;;;;;;122.55;95.75;;;;;;;-0.64;100.00;101017.69;4994123;28;20054;-80
2022/03/03 00:27:05;;;;;;;145.82;102.13;;;;;;;-0.61;100.00;101016.63;4994285;28;20108;-80
2022/03/03 00:29:33;;;;;;;138.93;100.13;;;;;;;-0.46;100.00;101016.16;4994359;28;20047;-80
2022/03/03 00:32:00;;;;;;;118.72;94.68;;;;;;;-0.59;100.00;101010.31;4993967;28;20050;-80
2022/03/03 00:34:27;;;;;;;132.40;101.95;;;;;;;-0.57;100.00;101012.81;4993831;28;20537;-80
2022/03/03 00:36:54;;;;;;;132.63;110.00;;;;;;;-0.48;100.00;101007.66;4994313;28;20117;-81
2022/03/03 00:39:20;;;;;;;132.23;107.53;;;;;;;-0.59;100.00;101001.66;4994349;28;20403;-79
2022/03/03 00:41:47;;;;;;;114.15;96.55;;;;;;;-0.50;100.00;101011.34;4994344;28;20119;-79
2022/03/03 00:44:14;;;;;;;107.85;93.03;;;;;;;-0.57;100.00;101002.38;4994186;28;20055;-80
2022/03/03 00:46:42;;;;;;;119.57;94.25;;;;;;;-0.55;100.00;100996.06;4993860;28;20455;-81
2022/03/03 00:49:09;;;;;;;120.28;93.60;;;;;;;-0.49;100.00;100995.53;4993947;28;20121;-79
2022/03/03 00:51:36;;;;;;;122.65;92.88;;;;;;;-0.52;100.00;100990.59;4993713;28;20054;-80
2022/03/03 00:54:03;;;;;;;114.63;90.38;;;;;;;-0.46;100.00;100992.69;4993862;28;20046;-79
2022/03/03 00:56:30;;;;;;;128.25;97.68;;;;;;;-0.44;100.00;100989.13;4993808;28;20050;-80
2022/03/03 00:58:57;;;;;;;117.00;97.47;;;;;;;-0.44;100.00;100989.13;4994087;28;20155;-83
2022/03/03 01:01:24;;;;;;;107.10;95.13;;;;;;;-0.41;100.00;100981.88;4993721;28;20062;-82
2022/03/03 01:03:52;;;;;;;115.60;99.05;;;;;;;-0.39;100.00;100982.59;4995944;28;20128;-80
2022/03/03 01:06:18;;;;;;;119.95;100.97;;;;;;;-0.42;100.00;100971.53;4997544;28;20101;-82
2022/03/03 01:08:45;;;;;;;112.82;100.43;;;;;;;-0.49;100.00;100979.88;4997338;28;20108;-80
2022/03/03 01:11:12;;;;;;;119.70;107.13;;;;;;;-0.48;100.00;100981.56;4997357;28;20050;-83
2022/03/03 01:13:39;;;;;;;113.55;101.25;;;;;;;-0.47;100.00;100969.34;4997222;28;20556;-80
2022/03/03 01:16:05;;;;;;;111.95;98.22;;;;;;;-0.50;100.00;100965.19;4997584;28;20050;-79
2022/03/03 01:18:33;;;;;;;110.07;98.28;;;;;;;-0.50;100.00;100959.16;4997455;28;20050;-82
2022/03/03 01:21:01;;;;;;;109.70;97.85;;;;;;;-0.42;100.00;100964.56;4997180;28;20046;-80
2022/03/03 01:23:28;;;;;;;101.22;90.55;;;;;;;-0.56;100.00;100960.50;4997114;28;20051;-80
2022/03/03 01:25:55;;;;;;;100.85;90.07;;;;;;;-0.52;100.00;100953.22;4997343;28;20046;-80
2022/03/03 01:28:22;;;;;;;108.43;96.65;;;;;;;-0.53;100.00;100957.63;4997453;28;20050;-82
2022/03/03 01:30:49;;;;;;;107.10;96.25;;;;;;;-0.57;100.00;100956.22;4997216;28;20127;-81
2022/03/03 01:33:16;;;;;;;103.45;92.28;;;;;;;-0.58;100.00;100956.34;4997160;28;20054;-79
2022/03/03 01:35:42;;;;;;;112.50;100.80;;;;;;;-0.68;100.00;100948.47;4997349;28;20054;-81
2022/03/03 01:38:10;;;;;;;117.05;104.30;;;;;;;-0.60;100.00;100943.44;4996619;28;20482;-80
2022/03/03 01:40:38;;;;;;;122.85;104.55;;;;;;;-0.58;100.00;100944.13;4997183;28;20051;-80
2022/03/03 01:43:04;;;;;;;125.72;97.90;;;;;;;-0.62;100.00;100955.78;4996675;28;20120;-81
2022/03/03 01:45:31;;;;;;;125.25;106.95;;;;;;;-0.65;100.00;100955.22;4996809;28;20112;-82
2022/03/03 01:47:58;;;;;;;134.32;103.03;;;;;;;-0.66;100.00;100953.56;4996843;28;20047;-82
2022/03/03 01:50:25;;;;;;;135.82;102.80;;;;;;;-0.64;100.00;100946.41;4996581;28;20054;-79
2022/03/03 01:52:52;;;;;;;135.38;101.80;;;;;;;-0.62;100.00;100944.53;4996715;28;20042;-80
2022/03/03 01:55:20;;;;;;;112.10;98.20;;;;;;;-0.69;100.00;100931.16;4996377;28;20121;-79
2022/03/03 01:57:50;;;;;;;124.10;110.53;;;;;;;-0.90;100.00;100930.34;4996746;28;20050;-82
2022/03/03 02:00:18;;;;;;;104.68;88.95;;;;;;;-0.95;100.00;100931.53;4996417;28;20141;-82
2022/03/03 02:02:44;;;;;;;106.60;88.35;;;;;;;-0.77;100.00;100937.00;4996593;28;20128;-80
2022/03/03 02:05:11;;;;;;;118.78;102.32;;;;;;;-0.67;100.00;100929.25;4996709;28;20116;-83
2022/03/03 02:07:38;;;;;;;119.53;101.75;;;;;;;-0.64;100.00;100933.38;4996406;28;20124;-80
2022/03/03 02:10:06;;;;;;;114.90;95.13;;;;;;;-0.64;100.00;100928.97;4996380;28;20483;-83
2022/03/03 02:12:34;;;;;;;106.50;92.50;;;;;;;-0.56;100.00;100939.63;4996581;28;20089;-80
2022/03/03 02:15:02;;;;;;;222.93;129.23;;;;;;;-0.84;100.00;100929.81;4995664;28;20112;-82
2022/03/03 02:17:29;;;;;;;192.70;126.10;;;;;;;-0.74;100.00;100928.09;4996078;28;20399;-80
2022/03/03 02:19:56;;;;;;;362.50;195.75;;;;;;;-0.64;100.00;100925.56;4996507;28;20458;-80
2022/03/03 02:22:24;;;;;;;176.98;129.32;;;;;;;-0.58;100.00;100927.66;4996334;28;20058;-82
2022/03/03 02:24:51;;;;;;;142.38;110.50;;;;;;;-0.59;100.00;100924.22;4996039;28;20471;-80
2022/03/03 02:27:18;;;;;;;104.40;92.65;;;;;;;-0.58;100.00;100925.84;4996608;28;20054;-80
2022/03/03 02:29:45;;;;;;;108.20;93.22;;;;;;;-0.60;100.00;100922.56;4995851;28;20468;-82
2022/03/03 02:32:12;;;;;;;107.38;95.63;;;;;;;-0.57;100.00;100924.09;4995916;28;20054;-79
2022/03/03 02:34:38;;;;;;;107.50;96.10;;;;;;;-0.58;100.00;100917.22;4996430;28;20058;-80
2022/03/03 02:37:06;;;;;;;105.07;93.75;;;;;;;-0.62;100.00;100923.66;4995865;28;20050;-81
2022/03/03 02:39:34;;;;;;;108.65;94.45;;;;;;;-0.59;100.00;100915.56;4995880;28;20450;-79
2022/03/03 02:42:00;;;;;;;110.15;98.20;;;;;;;-0.74;100.00;100912.44;4995875;28;20046;-80
2022/03/03 02:44:27;;;;;;;119.38;106.50;;;;;;;-0.76;100.00;100912.56;4995386;28;20533;-81
2022/03/03 02:46:54;;;;;;;119.93;107.78;;;;;;;-0.75;100.00;100918.63;4995538;28;20046;-80
2022/03/03 02:49:21;;;;;;;116.80;104.57;;;;;;;-0.77;100.00;100910.91;4995763;28;20058;-81
2022/03/03 02:51:47;;;;;;;110.78;99.03;;;;;;;-0.96;100.00;100910.81;4995769;28;20112;-80
2022/03/03 02:54:14;;;;;;;110.68;98.85;;;;;;;-0.95;100.00;100905.44;4995640;28;20124;-82
2022/03/03 02:59:35;;;;;;;104.72;90.03;;;;;;;-0.96;100.00;100900.38;4971773;28;20057;-80
2022/03/03 03:02:08;;;;;;;102.57;91.28;;;;;;;-0.95;100.00;100897.63;5145343;22;20049;-80
2022/03/03 03:04:34;;;;;;;102.57;91.03;;;;;;;-0.99;100.00;100903.22;5054758;28;20048;-80
2022/03/03 03:07:01;;;;;;;115.35;102.78;;;;;;;-0.84;100.00;100899.34;5054259;28;20457;-81
2022/03/03 03:09:28;;;;;;;115.80;103.57;;;;;;;-0.73;100.00;100893.22;5054708;28;20435;-81
2022/03/03 03:11:56;;;;;;;107.60;95.90;;;;;;;-0.83;100.00;100887.97;5054789;28;20511;-80
2022/03/03 03:14:23;;;;;;;125.70;109.18;;;;;;;-0.78;100.00;100891.03;5054551;28;20053;-81
2022/03/03 03:16:49;;;;;;;119.22;106.10;;;;;;;-0.76;100.00;100899.53;5054668;28;20049;-83
2022/03/03 03:19:16;;;;;;;113.55;101.03;;;;;;;-0.68;100.00;100891.06;5054609;28;20103;-80
2022/03/03 03:21:43;;;;;;;113.60;101.28;;;;;;;-0.99;100.00;100887.59;5054143;28;20477;-80
2022/03/03 03:24:10;;;;;;;112.05;100.38;;;;;;;-0.96;100.00;100882.94;5054510;28;20122;-79
2022/03/03 03:26:36;;;;;;;114.78;96.10;;;;;;;-1.08;100.00;100897.00;5053510;28;20053;-81
2022/03/03 03:29:04;;;;;;;110.40;97.13;;;;;;;-0.81;100.00;100888.66;5054061;28;20477;-81
2022/03/03 03:31:31;;;;;;;137.23;113.75;;;;;;;-0.76;100.00;100891.69;5054143;28;20045;-83
2022/03/03 03:33:58;;;;;;;149.25;114.60;;;;;;;-0.70;100.00;100886.00;5054001;28;20061;-80
2022/03/03 03:36:25;;;;;;;148.60;111.68;;;;;;;-0.56;100.00;100879.59;5054220;28;20118;-80
2022/03/03 03:38:51;;;;;;;146.93;111.75;;;;;;;-0.79;100.00;100884.13;5054187;28;20057;-83
2022/03/03 03:41:18;;;;;;;141.13;109.25;;;;;;;-0.65;100.00;100882.16;5053947;28;20045;-80
2022/03/03 03:43:45;;;;;;;142.60;113.00;;;;;;;-0.66;100.00;100889.16;5053865;28;20049;-81
2022/03/03 03:46:13;;;;;;;137.90;111.90;;;;;;;-0.63;100.00;100880.25;5054468;28;20044;-83
2022/03/03 03:48:40;;;;;;;141.50;108.25;;;;;;;-0.63;100.00;100878.47;5054116;28;20122;-81
2022/03/03 03:51:07;;;;;;;141.70;113.97;;;;;;;-0.49;100.00;100880.72;5054164;28;20061;-80
2022/03/03 03:53:33;;;;;;;134.77;109.88;;;;;;;-0.60;100.00;100872.19;5054020;28;20053;-80
2022/03/03 03:56:00;;;;;;;140.32;106.97;;;;;;;-0.81;100.00;100872.19;5053985;28;20048;-81
2022/03/03 03:58:27;;;;;;;138.15;108.10;;;;;;;-0.73;100.00;100868.00;5053513;28;20053;-80
2022/03/03 04:00:54;;;;;;;153.02;120.40;;;;;;;-0.58;100.00;100867.63;5054373;28;20053;-82
2022/03/03 04:03:22;;;;;;;122.65;103.53;;;;;;;-0.86;100.00;100872.56;5052160;28;20060;-81
2022/03/03 04:05:48;;;;;;;130.38;98.13;;;;;;;-0.87;100.00;100875.31;5053420;28;20052;-79
2022/03/03 04:08:15;;;;;;;139.98;104.65;;;;;;;-0.65;100.00;100869.13;5053575;28;20045;-80
2022/03/03 04:10:42;;;;;;;157.38;122.35;;;;;;;-0.48;100.00;100874.56;5053757;28;20064;-79
2022/03/03 04:13:09;;;;;;;151.60;117.43;;;;;;;-0.49;100.00;100872.91;5053781;28;20057;-80
2022/03/03 04:15:36;;;;;;;149.85;122.00;;;;;;;-0.44;100.00;100871.69;5053497;28;20049;-83
2022/03/03 04:18:02;;;;;;;146.18;121.75;;;;;;;-0.43;100.00;100870.72;5053587;28;20107;-80
2022/03/03 04:20:31;;;;;;;143.45;117.63;;;;;;;-0.53;100.00;100871.50;5053703;28;20045;-80
2022/03/03 04:22:57;;;;;;;141.18;110.28;;;;;;;-0.60;100.00;100866.97;5053780;28;20060;-82
2022/03/03 04:25:24;;;;;;;141.13;113.30;;;;;;;-0.70;100.00;100869.50;5053700;28;20049;-84
2022/03/03 04:27:51;;;;;;;139.65;111.57;;;;;;;-0.71;100.00;100873.88;5053498;28;20049;-82
2022/03/03 04:30:18;;;;;;;129.10;108.10;;;;;;;-0.69;100.00;100858.13;5053142;28;20103;-81
2022/03/03 04:32:44;;;;;;;136.18;104.43;;;;;;;-0.77;100.00;100871.78;5053517;28;20174;-80
2022/03/03 04:35:12;;;;;;;125.50;109.53;;;;;;;-0.68;100.00;100862.38;5053456;28;20053;-80
2022/03/03 04:37:40;;;;;;;134.90;107.72;;;;;;;-0.73;100.00;100864.53;5055531;28;20056;-80
2022/03/03 04:40:08;;;;;;;126.20;99.78;;;;;;;-0.73;100.00;100861.94;5057618;28;20115;-81
2022/03/03 04:42:35;;;;;;;126.32;100.07;;;;;;;-0.89;100.00;100859.78;5057432;28;20480;-82
2022/03/03 04:45:02;;;;;;;130.15;104.30;;;;;;;-0.84;100.00;100851.59;5057319;28;20126;-81
2022/03/03 04:47:29;;;;;;;156.52;120.40;;;;;;;-0.74;100.00;100853.28;5057129;28;20044;-81
2022/03/03 04:49:56;;;;;;;144.82;111.10;;;;;;;-0.77;100.00;100848.31;5057153;28;20472;-80
2022/03/03 04:52:23;;;;;;;146.85;102.93;;;;;;;-0.70;100.00;100852.09;5057392;28;20107;-83
2022/03/03 04:54:51;;;;;;;125.07;97.22;;;;;;;-0.71;100.00;100850.41;5057065;28;20045;-80
2022/03/03 04:57:18;;;;;;;117.47;96.50;;;;;;;-0.71;100.00;100853.03;5057910;28;20126;-81
2022/03/03 04:59:45;;;;;;;119.10;94.93;;;;;;;-0.60;100.00;100856.53;5056813;28;20087;-82
2022/03/03 05:02:12;;;;;;;117.25;88.35;;;;;;;-0.58;100.00;100855.41;5055438;28;20122;-82
2022/03/03 05:04:39;;;;;;;118.57;95.75;;;;;;;-0.59;100.00;100859.00;5056893;28;20104;-80
2022/03/03 05:07:05;;;;;;;125.70;97.97;;;;;;;-0.64;100.00;100858.53;5056524;28;20053;-81
2022/03/03 05:09:32;;;;;;;133.32;93.93;;;;;;;-0.61;100.00;100860.06;5056887;28;20053;-82
2022/03/03 05:12:00;;;;;;;140.15;95.28;;;;;;;-0.54;100.00;100856.81;5056706;28;20135;-81
2022/03/03 05:14:28;;;;;;;123.07;97.43;;;;;;;-0.59;100.00;100856.38;5056966;28;20417;-80
2022/03/03 05:16:54;;;;;;;120.68;94.65;;;;;;;-0.55;100.00;100855.16;5056910;28;20052;-83
2022/03/03 05:19:21;;;;;;;124.28;94.35;;;;;;;-0.64;100.00;100852.50;5056946;28;20040;-80
2022/03/03 05:21:49;;;;;;;122.43;100.60;;;;;;;-0.44;100.00;100854.25;5056673;28;20122;-81
2022/03/03 05:24:16;;;;;;;123.93;100.18;;;;;;;-0.67;100.00;100853.59;5056896;28;20052;-81
2022/03/03 05:26:42;;;;;;;114.43;98.57;;;;;;;-0.56;100.00;100847.47;5056554;28;20079;-80
2022/03/03 05:29:11;;;;;;;113.38;100.68;;;;;;;-0.39;100.00;100857.31;5056273;28;20473;-81
2022/03/03 05:31:37;;;;;;;119.35;101.90;;;;;;;-0.34;100.00;100856.88;5056283;28;20060;-80
2022/03/03 05:34:05;;;;;;;112.05;99.95;;;;;;;-0.39;100.00;100853.84;5056383;28;20052;-81
2022/03/03 05:36:31;;;;;;;109.32;98.10;;;;;;;-0.32;100.00;100858.41;5056179;28;20057;-83
2022/03/03 05:38:59;;;;;;;105.90;94.70;;;;;;;-0.28;100.00;100857.19;5056151;28;20053;-80
2022/03/03 05:41:25;;;;;;;108.70;97.35;;;;;;;-0.16;100.00;100855.31;5055952;28;20049;-79
2022/03/03 05:43:53;;;;;;;113.85;102.30;;;;;;;-0.18;100.00;100852.03;5056072;28;20052;-80
2022/03/03 05:46:23;;;;;;;112.68;101.32;;;;;;;-0.13;100.00;100851.59;5056385;28;20045;-80
2022/03/03 05:48:50;;;;;;;137.23;118.93;;;;;;;-0.07;100.00;100853.69;5055457;28;20049;-80
2022/03/03 05:51:17;;;;;;;127.20;110.03;;;;;;;-0.21;100.00;100857.50;5056763;28;20114;-83
2022/03/03 05:53:44;;;;;;;120.22;106.97;;;;;;;-0.18;100.00;100852.03;5055919;28;20546;-82
2022/03/03 05:56:13;;;;;;;133.23;113.07;;;;;;;0.12;100.00;100858.13;5055861;28;20455;-81
2022/03/03 05:58:42;;;;;;;149.40;117.20;;;;;;;0.36;100.00;100855.94;5055921;28;20118;-83
2022/03/03 06:01:10;;;;;;;124.55;106.38;;;;;;;0.35;100.00;100856.91;5055672;28;20063;-81
2022/03/03 06:03:39;;;;;;;129.10;110.65;;;;;;;0.43;100.00;100856.25;5054386;28;20056;-83
2022/03/03 06:06:14;;;;;;;151.75;125.90;;;;;;;0.60;100.00;100857.34;5055531;28;20049;-81
2022/03/03 06:08:54;;;;;;;152.15;121.60;;;;;;;0.87;100.00;100854.84;5055920;28;20091;-80
2022/03/03 06:11:22;;;;;;;136.38;108.15;;;;;;;1.00;100.00;100861.56;5055704;28;20111;-80
2022/03/03 06:13:49;;;;;;;118.20;105.35;;;;;;;1.03;100.00;100858.69;5055587;28;20512;-81
2022/03/03 06:16:20;;;;;;;120.82;107.60;;;;;;;1.18;100.00;100865.16;5056080;28;20045;-81
2022/03/03 06:18:50;;;;;;;122.95;108.07;;;;;;;1.31;100.00;100868.28;5055915;28;20452;-81
2022/03/03 06:21:17;;;;;;;113.82;101.50;;;;;;;1.34;100.00;100875.03;5055542;28;20049;-83
2022/03/03 06:23:45;;;;;;;117.57;106.18;;;;;;;1.41;100.00;100880.50;5055575;28;20107;-81
2022/03/03 06:26:16;;;;;;;107.82;97.22;;;;;;;1.52;100.00;100873.31;5055586;28;20055;-80
2022/03/03 06:28:43;;;;;;;92.82;83.72;;;;;;;1.51;100.00;100871.69;5055533;28;20060;-81
2022/03/03 06:31:10;;;;;;;96.20;86.65;;;;;;;1.86;100.00;100869.31;5055318;28;20049;-81
2022/03/03 06:33:37;;;;;;;99.78;90.63;;;;;;;2.16;100.00;100876.06;5055397;28;20049;-81
2022/03/03 06:36:06;;;;;;;110.45;99.07;;;;;;;2.25;100.00;100875.16;5055386;28;20111;-83
2022/03/03 06:38:33;;;;;;;111.15;100.95;;;;;;;2.18;100.00;100874.94;5055353;28;20049;-80
2022/03/03 06:41:01;;;;;;;105.15;95.85;;;;;;;1.88;100.00;100860.34;5055206;28;20102;-82
2022/03/03 06:43:29;;;;;;;98.68;89.75;;;;;;;1.93;100.00;100865.97;5054960;28;20049;-81
2022/03/03 06:45:56;;;;;;;98.32;89.38;;;;;;;2.61;100.00;100868.16;5055204;28;20049;-81
2022/03/03 06:48:24;;;;;;;104.00;94.85;;;;;;;3.08;100.00;100862.59;5055159;28;20055;-80
2022/03/03 06:50:53;;;;;;;103.70;94.70;;;;;;;2.77;100.00;100869.25;5055465;28;20411;-84
2022/03/03 06:53:27;;;;;;;95.22;86.60;;;;;;;2.75;100.00;100870.25;5055405;28;20056;-80
2022/03/03 06:55:58;;;;;;;82.18;75.03;;;;;;;2.71;100.00;100868.88;5055253;28;20053;-81
2022/03/03 06:58:26;;;;;;;76.50;69.90;;;;;;;1.95;100.00;100871.06;5055118;28;20526;-80
2022/03/03 07:00:53;;;;;;;89.95;82.22;;;;;;;3.05;100.00;100872.59;5054931;28;20053;-81
2022/03/03 07:03:22;;;;;;;82.38;75.35;;;;;;;2.83;100.00;100882.59;5053685;28;20115;-81
2022/03/03 07:05:51;;;;;;;77.05;70.93;;;;;;;2.66;100.00;100888.66;5054865;28;20059;-81
2022/03/03 07:08:19;;;;;;;83.38;76.30;;;;;;;2.64;100.00;100888.81;5054868;28;20067;-82
2022/03/03 07:10:48;;;;;;;83.13;76.32;;;;;;;2.48;100.00;100884.25;5054776;28;20049;-82
2022/03/03 07:13:17;;;;;;;78.78;72.18;;;;;;;2.47;100.00;100882.59;5054515;28;20564;-83
2022/03/03 07:15:49;;;;;;;80.55;73.85;;;;;;;2.10;100.00;100885.31;5054760;28;20140;-82
2022/03/03 07:18:19;;;;;;;66.88;61.17;;;;;;;2.98;100.00;100888.13;5055101;28;20136;-80
2022/03/03 07:20:54;;;;;;;66.60;61.25;;;;;;;2.84;100.00;100889.47;5054757;28;20060;-84
2022/03/03 07:23:36;;;;;;;65.65;60.50;;;;;;;2.46;100.00;100888.81;5054987;28;20049;-83
2022/03/03 07:26:05;;;;;;;64.35;58.72;;;;;;;2.39;100.00;100884.31;5055332;28;20541;-80
2022/03/03 07:28:34;;;;;;;74.15;67.90;;;;;;;3.23;100.00;100883.88;5054916;28;20048;-81
2022/03/03 07:31:02;;;;;;;73.45;67.22;;;;;;;4.20;100.00;100887.94;5054614;28;20045;-80
2022/03/03 07:33:41;;;;;;;72.80;67.05;;;;;;;3.59;100.00;100881.97;5054095;28;20508;-80
2022/03/03 07:36:09;;;;;;;72.47;66.70;;;;;;;3.68;100.00;100888.09;5054221;28;20108;-83
2022/03/03 07:38:38;;;;;;;61.13;56.30;;;;;;;3.32;100.00;100879.50;5054785;28;20114;-80
2022/03/03 07:41:08;;;;;;;66.63;61.00;;;;;;;3.69;100.00;100884.47;5054066;28;20053;-83
2022/03/03 07:43:35;;;;;;;64.03;58.83;;;;;;;3.79;100.00;100873.84;5054406;28;20430;-83
2022/03/03 07:46:03;;;;;;;58.28;53.58;;;;;;;3.32;100.00;100871.63;5054702;28;20057;-81
2022/03/03 07:48:31;;;;;;;63.25;57.90;;;;;;;4.19;100.00;100877.59;5054351;28;20053;-83
2022/03/03 07:51:01;;;;;;;65.10;60.00;;;;;;;5.03;100.00;100877.38;5055414;28;20106;-80
2022/03/03 07:53:28;;;;;;;55.28;51.33;;;;;;;5.04;100.00;100871.09;5055856;28;20460;-83
2022/03/03 07:56:02;;;;;;;61.17;56.08;;;;;;;5.35;100.00;100877.50;5054656;28;20056;-80
2022/03/03 07:58:34;;;;;;;55.70;51.30;;;;;;;4.14;100.00;100872.81;5055231;28;20114;-80
2022/03/03 08:01:03;;;;;;;59.22;54.17;;;;;;;4.06;100.00;100872.81;5054349;28;20133;-80
2022/03/03 08:03:31;;;;;;;60.42;55.72;;;;;;;5.59;100.00;100869.53;5052607;28;20471;-80
2022/03/03 08:05:58;;;;;;;63.42;57.88;;;;;;;6.84;100.00;100865.06;5053915;28;20448;-80
2022/03/03 08:08:27;;;;;;;56.10;51.28;;;;;;;4.81;100.00;100856.97;5054823;28;20041;-81
2022/03/03 08:10:58;;;;;;;56.10;51.50;;;;;;;4.05;100.00;100868.53;5054177;28;20052;-80
2022/03/03 08:13:27;;;;;;;56.45;51.28;;;;;;;4.31;100.00;100857.91;5054096;28;20114;-80
2022/03/03 08:15:56;;;;;;;57.42;52.63;;;;;;;5.00;100.00;100861.91;5054974;28;20122;-81
2022/03/03 08:18:27;;;;;;;55.38;51.15;;;;;;;5.64;100.00;100858.50;5054318;28;20448;-82
2022/03/03 08:20:56;;;;;;;54.05;49.67;;;;;;;4.56;100.00;100862.22;5054316;28;20119;-80
2022/03/03 08:23:26;;;;;;;52.42;48.15;;;;;;;4.95;100.00;100855.50;5054396;28;20049;-80
2022/03/03 08:25:54;;;;;;;58.83;53.45;;;;;;;6.04;100.00;100861.97;5054288;28;20122;-83
2022/03/03 08:28:23;;;;;;;50.30;45.90;;;;;;;5.01;100.00;100857.47;5053956;28;20118;-80
2022/03/03 08:30:52;;;;;;;51.97;47.67;;;;;;;5.74;100.00;100857.28;5053767;28;20108;-83
2022/03/03 08:33:30;;;;;;;56.35;51.70;;;;;;;5.22;100.00;100856.94;5054465;28;20111;-81
2022/03/03 08:36:00;;;;;;;56.03;51.28;;;;;;;4.87;100.00;100858.97;5053879;28;20508;-83
2022/03/03 08:38:35;;;;;;;55.20;50.63;;;;;;;5.11;100.00;100850.19;5054344;28;20049;-78
2022/03/03 08:41:03;;;;;;;62.28;57.25;;;;;;;5.68;100.00;100849.25;5054614;28;20470;-82
2022/03/03 08:43:33;;;;;;;59.53;54.92;;;;;;;5.87;100.00;100853.28;5054126;28;20130;-83
2022/03/03 08:46:03;;;;;;;55.78;51.47;;;;;;;5.52;100.00;100855.38;5054110;28;20052;-82
2022/03/03 08:48:33;;;;;;;57.17;52.47;;;;;;;5.25;100.00;100849.53;5054272;28;20135;-82
2022/03/03 08:51:14;;;;;;;55.33;49.67;;;;;;;5.76;100.00;100851.84;5054383;28;20057;-82
2022/03/03 08:53:41;;;;;;;58.40;53.67;;;;;;;6.46;100.00;100851.00;5054607;28;20063;-80
2022/03/03 08:56:08;;;;;;;56.15;51.63;;;;;;;6.17;100.00;100849.88;5054419;28;20455;-83
2022/03/03 08:58:35;;;;;;;59.65;54.90;;;;;;;6.79;100.00;100843.66;5055387;28;20044;-79
2022/03/03 09:01:02;;;;;;;62.85;57.58;;;;;;;6.18;100.00;100848.06;5053649;28;20114;-80
2022/03/03 09:03:29;;;;;;;62.05;57.45;;;;;;;6.40;100.00;100851.72;5052448;28;20080;-82
2022/03/03 09:05:57;;;;;;;56.58;51.97;;;;;;;6.14;100.00;100846.75;5054199;28;20115;-80
2022/03/03 09:08:24;;;;;;;55.88;51.42;;;;;;;6.13;100.00;100845.09;5054406;28;20085;-79
2022/03/03 09:10:51;;;;;;;67.18;62.08;;;;;;;7.85;100.00;100847.00;5054269;28;20045;-79
2022/03/03 09:13:18;;;;;;;58.42;53.97;;;;;;;6.00;100.00;100847.50;5054193;28;20539;-80
2022/03/03 09:15:45;;;;;;;54.45;50.25;;;;;;;7.28;100.00;100840.56;5054116;28;20053;-80
2022/03/03 09:18:12;;;;;;;53.75;49.50;;;;;;;6.58;100.00;100849.59;5054253;28;20041;-81
2022/03/03 09:20:39;;;;;;;51.47;47.47;;;;;;;6.11;100.00;100849.72;5054239;28;20102;-81
2022/03/03 09:23:08;;;;;;;56.88;52.50;;;;;;;7.94;100.00;100850.38;5054388;28;20465;-79
2022/03/03 09:25:36;;;;;;;57.58;52.92;;;;;;;8.19;100.00;100845.56;5058208;28;20421;-80
2022/03/03 09:28:04;;;;;;;52.22;48.13;;;;;;;6.71;100.00;100848.19;5058317;28;20055;-80
2022/03/03 09:30:31;;;;;;;54.53;50.15;;;;;;;9.28;100.00;100845.31;5057613;28;20078;-79
2022/03/03 09:32:58;;;;;;;52.72;48.85;;;;;;;8.46;100.00;100855.47;5057309;28;20473;-80
2022/03/03 09:35:26;;;;;;;50.67;46.97;;;;;;;7.07;100.00;100851.00;5057046;28;20049;-83
2022/03/03 09:37:53;;;;;;;56.65;52.35;;;;;;;7.70;100.00;100854.16;5057835;28;20045;-80
2022/03/03 09:40:21;;;;;;;58.22;53.72;;;;;;;7.77;100.00;100861.16;5056856;28;20053;-80
2022/03/03 09:42:59;;;;;;;52.95;48.90;;;;;;;7.23;100.00;100856.16;5056516;28;20052;-81
2022/03/03 09:45:26;;;;;;;53.10;49.42;;;;;;;7.71;100.00;100864.53;5057371;28;20091;-78
2022/03/03 09:47:55;;;;;;;52.55;48.25;;;;;;;8.16;100.00;100864.47;5057483;28;20132;-81
2022/03/03 09:50:22;;;;;;;57.38;53.10;;;;;;;8.08;100.00;100852.19;5057879;28;20063;-80
2022/03/03 09:52:49;;;;;;;52.00;48.00;;;;;;;7.42;100.00;100846.88;5058011;28;20052;-80
2022/03/03 09:55:16;;;;;;;48.45;44.72;;;;;;;7.95;100.00;100847.53;5057827;28;20045;-79
2022/03/03 09:57:45;;;;;;;53.60;49.40;;;;;;;8.13;100.00;100848.97;5057879;28;20443;-80
2022/03/03 10:00:12;;;;;;;56.85;52.30;;;;;;;8.40;100.00;100850.09;5057823;28;20075;-78
2022/03/03 10:02:59;;;;;;;59.33;54.65;;;;;;;9.81;100.00;100838.47;5055905;28;20147;-79
2022/03/03 10:05:30;;;;;;;56.25;52.35;;;;;;;11.73;100.00;100844.91;5057084;28;20115;-79
2022/03/03 10:08:02;;;;;;;56.15;52.25;;;;;;;8.96;100.00;100850.22;5057582;28;20120;-78
2022/03/03 10:10:28;;;;;;;50.88;47.33;;;;;;;8.91;100.00;100842.81;5057697;28;20131;-79
2022/03/03 10:12:58;;;;;;;53.08;49.05;;;;;;;9.31;100.00;100844.94;5056714;28;20079;-79
2022/03/03 10:15:28;;;;;;;51.15;47.17;;;;;;;7.57;100.00;100844.22;5056524;28;20457;-79
2022/03/03 10:18:00;;;;;;;52.85;48.70;;;;;;;7.56;100.00;100830.19;5056787;28;20049;-78
2022/03/03 10:20:29;;;;;;;54.22;50.17;;;;;;;7.67;100.00;100834.19;5056995;28;20123;-79
2022/03/03 10:22:59;;;;;;;56.13;51.95;;;;;;;8.82;100.00;100819.31;5055518;28;20101;-79
2022/03/03 10:25:33;;;;;;;73.55;68.28;;;;;;;8.54;100.00;100821.94;5056872;28;20053;-79
2022/03/03 10:28:14;;;;;;;77.03;70.90;;;;;;;7.66;100.00;100832.53;5056667;28;20171;-79
2022/03/03 10:30:48;;;;;;;82.07;75.20;;;;;;;10.74;100.00;100819.28;5055638;28;20063;-78
2022/03/03 10:33:20;;;;;;;85.03;77.72;;;;;;;10.17;100.00;100810.84;5057702;28;20110;-81
2022/03/03 10:36:09;;;;;;;84.05;77.10;;;;;;;11.62;100.00;100821.63;5055742;28;20562;-78
2022/03/03 10:38:47;;;;;;;55.47;51.10;;;;;;;9.66;100.00;100810.47;5056186;28;20128;-79
2022/03/03 10:41:35;;;;;;;55.90;51.97;;;;;;;10.90;100.00;100808.28;5050931;28;20511;-80
2022/03/03 10:44:06;;;;;;;60.35;55.55;;;;;;;10.14;100.00;100813.91;5055913;28;20065;-80
2022/03/03 10:46:33;;;;;;;51.95;48.17;;;;;;;9.44;100.00;100815.88;5056769;28;20045;-79
2022/03/03 10:49:16;;;;;;;55.58;51.78;;;;;;;9.60;100.00;100814.72;5057822;28;20049;-81
2022/03/03 10:51:43;;;;;;;55.53;51.60;;;;;;;9.58;100.00;100808.78;5055992;28;20053;-80
2022/03/03 10:54:10;;;;;;;52.80;48.80;;;;;;;8.89;100.00;100814.88;5055492;28;20053;-81
2022/03/03 10:56:44;;;;;;;56.20;52.25;;;;;;;9.99;100.00;100800.78;5057125;28;20055;-81
2022/03/03 10:59:21;;;;;;;55.75;51.95;;;;;;;9.55;100.00;100806.53;5056376;28;20120;-81
2022/03/03 11:01:49;;;;;;;53.72;49.72;;;;;;;10.79;100.00;100806.22;5056844;28;20052;-79
2022/03/03 11:04:18;;;;;;;51.92;48.22;;;;;;;13.09;100.00;100800.19;5055028;28;20057;-81